createdAt,value
2023-03-23T15:58:52.260Z,16.65
2023-03-23T16:01:23.136Z,16.57
2023-03-23T16:03:53.464Z,16.43
2023-03-23T16:06:25.700Z,16.33
2023-03-23T16:08:54.041Z,16.25
2023-03-23T16:11:22.985Z,16.24
2023-03-23T16:13:51.650Z,16.24
2023-03-23T16:16:23.339Z,16.35
2023-03-23T16:18:51.188Z,16.32
2023-03-23T16:21:18.968Z,16.27
2023-03-23T16:23:47.998Z,16.26
2023-03-23T16:26:16.597Z,16.19
2023-03-23T16:28:45.058Z,16.18
2023-03-23T16:31:13.111Z,16.09
2023-03-23T16:33:41.335Z,16.04
2023-03-23T16:36:12.018Z,16.01
2023-03-23T16:38:49.546Z,16.02
2023-03-23T16:41:20.733Z,15.97
2023-03-23T16:43:48.380Z,16.04
2023-03-23T16:46:16.127Z,16.01
2023-03-23T16:48:43.847Z,16.02
2023-03-23T16:51:11.520Z,15.96
2023-03-23T16:53:39.350Z,16.02
2023-03-23T16:56:07.258Z,15.96
2023-03-23T16:58:36.601Z,15.92
2023-03-23T17:01:05.946Z,15.96
2023-03-23T17:03:34.069Z,15.95
2023-03-23T17:06:02.451Z,15.81
2023-03-23T17:08:30.261Z,15.72
2023-03-23T17:10:57.948Z,15.67
2023-03-23T17:13:27.926Z,15.64
2023-03-23T17:15:57.755Z,15.66
2023-03-23T17:18:26.293Z,15.66
2023-03-23T17:20:55.117Z,15.62
2023-03-23T17:23:27.827Z,15.62
2023-03-23T17:25:55.646Z,15.62
2023-03-23T17:28:30.601Z,15.61
2023-03-23T17:31:06.565Z,15.65
2023-03-23T17:33:37.296Z,15.61
2023-03-23T17:36:15.720Z,15.60
2023-03-23T17:38:54.719Z,15.48
2023-03-23T17:41:22.529Z,15.43
2023-03-23T17:43:50.516Z,15.38
2023-03-23T17:46:19.656Z,15.33
2023-03-23T17:48:47.385Z,15.24
2023-03-23T17:51:15.491Z,15.20
2023-03-23T17:53:43.214Z,15.16
2023-03-23T17:56:11.577Z,15.15
2023-03-23T17:58:39.254Z,15.16
2023-03-23T18:01:07.619Z,15.12
2023-03-23T18:03:37.136Z,15.11
2023-03-23T18:06:08.202Z,15.08
2023-03-23T18:08:37.035Z,15.01
2023-03-23T18:11:05.469Z,14.96
2023-03-23T18:13:35.864Z,14.96
2023-03-23T18:16:05.121Z,14.92
2023-03-23T18:18:33.442Z,14.82
2023-03-23T18:21:05.087Z,14.77
2023-03-23T18:23:39.012Z,14.78
2023-03-23T18:26:14.174Z,14.75
2023-03-23T18:28:41.988Z,14.80
2023-03-23T18:31:13.034Z,14.79
2023-03-23T18:33:44.864Z,14.83
2023-03-23T18:36:15.325Z,14.83
2023-03-23T18:38:43.098Z,14.80
2023-03-23T18:41:11.601Z,14.84
2023-03-23T18:43:48.591Z,14.86
2023-03-23T18:46:16.806Z,14.94
2023-03-23T18:48:44.888Z,14.97
2023-03-23T18:51:14.143Z,15.00
2023-03-23T18:53:42.091Z,15.00
2023-03-23T18:56:11.972Z,15.01
2023-03-23T18:58:40.073Z,15.02
2023-03-23T19:01:09.948Z,15.02
2023-03-23T19:03:39.569Z,15.02
2023-03-23T19:06:09.466Z,14.99
2023-03-23T19:08:38.681Z,14.93
2023-03-23T19:11:08.198Z,14.86
2023-03-23T19:13:37.509Z,14.81
2023-03-23T19:16:07.850Z,14.75
2023-03-23T19:18:35.699Z,14.79
2023-03-23T19:21:12.658Z,14.82
2023-03-23T19:23:43.316Z,14.80
2023-03-23T19:26:20.318Z,14.76
2023-03-23T19:29:23.089Z,14.73
2023-03-23T19:31:35.851Z,14.67
2023-03-23T19:34:03.699Z,14.63
2023-03-23T19:36:31.925Z,14.62
2023-03-23T19:39:02.917Z,14.59
2023-03-23T19:41:31.275Z,14.60
2023-03-23T19:43:59.594Z,14.61
2023-03-23T19:46:30.260Z,14.61
2023-03-23T19:48:59.170Z,14.60
2023-03-23T19:51:28.548Z,14.57
2023-03-23T19:53:57.477Z,14.55
2023-03-23T19:56:28.907Z,14.54
2023-03-23T19:58:57.135Z,14.56
2023-03-23T20:01:26.188Z,14.54
2023-03-23T20:03:56.378Z,14.53
2023-03-23T20:06:28.932Z,14.52
2023-03-23T20:09:00.005Z,14.51
2023-03-23T20:11:30.456Z,14.48
2023-03-23T20:13:58.413Z,14.48
2023-03-23T20:16:26.921Z,14.52
2023-03-23T20:18:55.446Z,14.53
2023-03-23T20:21:25.057Z,14.53
2023-03-23T20:23:55.256Z,14.56
2023-03-23T20:26:28.168Z,14.57
2023-03-23T20:28:57.634Z,14.59
2023-03-23T20:31:27.390Z,14.57
2023-03-23T20:34:02.067Z,14.53
2023-03-23T20:36:34.747Z,14.56
2023-03-23T20:39:08.348Z,14.56
2023-03-23T20:41:36.787Z,14.59
2023-03-23T20:44:06.891Z,14.60
2023-03-23T20:46:35.227Z,14.57
2023-03-23T20:49:05.958Z,14.55
2023-03-23T20:51:34.119Z,14.58
2023-03-23T20:54:01.941Z,14.62
2023-03-23T20:56:29.748Z,14.61
2023-03-23T20:58:57.482Z,14.62
2023-03-23T21:01:26.969Z,14.60
2023-03-23T21:03:56.837Z,14.64
2023-03-23T21:06:28.168Z,14.66
2023-03-23T21:08:56.894Z,14.65
2023-03-23T21:11:26.942Z,14.66
2023-03-23T21:13:54.949Z,14.58
2023-03-23T21:16:24.304Z,14.51
2023-03-23T21:18:53.788Z,14.44
2023-03-23T21:21:21.888Z,14.41
2023-03-23T21:23:52.432Z,14.33
2023-03-23T21:26:24.142Z,14.43
2023-03-23T21:28:54.076Z,14.40
2023-03-23T21:31:26.754Z,14.31
2023-03-23T21:33:56.058Z,14.30
2023-03-23T21:36:24.663Z,14.31
2023-03-23T21:38:52.488Z,14.27
2023-03-23T21:41:20.880Z,14.27
2023-03-23T21:43:48.777Z,14.24
2023-03-23T21:46:19.037Z,14.28
2023-03-23T21:48:51.443Z,14.30
2023-03-23T21:51:23.314Z,14.29
2023-03-23T21:53:54.021Z,14.23
2023-03-23T21:56:23.223Z,14.27
2023-03-23T21:58:51.131Z,14.30
2023-03-23T22:01:19.238Z,14.23
2023-03-23T22:03:47.289Z,14.21
2023-03-23T22:06:16.973Z,14.19
2023-03-23T22:08:47.747Z,14.14
2023-03-23T22:11:17.959Z,14.14
2023-03-23T22:13:46.486Z,14.12
2023-03-23T22:16:17.698Z,14.06
2023-03-23T22:18:46.344Z,14.09
2023-03-23T22:21:15.505Z,14.07
2023-03-23T22:23:44.835Z,14.09
2023-03-23T22:26:16.295Z,14.06
2023-03-23T22:28:45.770Z,14.00
2023-03-23T22:31:17.441Z,14.07
2023-03-23T22:33:46.137Z,14.01
2023-03-23T22:36:14.569Z,13.99
2023-03-23T22:38:44.762Z,13.93
2023-03-23T22:41:18.482Z,13.91
2023-03-23T22:43:47.112Z,13.87
2023-03-23T22:46:15.076Z,13.81
2023-03-23T22:48:43.046Z,13.76
2023-03-23T22:51:12.060Z,13.70
2023-03-23T22:53:40.260Z,13.67
2023-03-23T22:56:09.312Z,13.66
2023-03-23T22:58:38.967Z,13.63
2023-03-23T23:01:09.233Z,13.61
2023-03-23T23:03:38.034Z,13.60
2023-03-23T23:06:06.631Z,13.55
2023-03-23T23:08:34.872Z,13.53
2023-03-23T23:11:04.513Z,13.50
2023-03-23T23:13:33.369Z,13.47
2023-03-23T23:16:03.229Z,13.43
2023-03-23T23:18:33.221Z,13.47
2023-03-23T23:21:05.170Z,13.45
2023-03-23T23:23:34.423Z,13.49
2023-03-23T23:26:02.289Z,13.45
2023-03-23T23:28:30.998Z,13.37
2023-03-23T23:30:59.585Z,13.43
2023-03-23T23:33:28.922Z,13.38
2023-03-23T23:35:56.754Z,13.42
2023-03-23T23:38:24.762Z,13.37
2023-03-23T23:40:52.573Z,13.38
2023-03-23T23:43:20.320Z,13.35
2023-03-23T23:45:48.181Z,13.35
2023-03-23T23:48:16.104Z,13.32
2023-03-23T23:50:45.440Z,13.32
2023-03-23T23:53:13.304Z,13.33
2023-03-23T23:55:41.177Z,13.30
2023-03-23T23:58:08.946Z,13.35
